createdAt,value
2022-12-19T00:01:01.317Z,-7.75
2022-12-19T00:03:52.755Z,-7.52
2022-12-19T00:06:20.251Z,-7.40
2022-12-19T00:09:04.678Z,-7.46
2022-12-19T00:12:00.739Z,-7.43
2022-12-19T00:14:27.140Z,-7.32
2022-12-19T00:16:55.581Z,-7.45
2022-12-19T00:19:22.107Z,-7.47
2022-12-19T00:21:48.450Z,-7.34
2022-12-19T00:24:21.390Z,-7.29
2022-12-19T00:26:48.682Z,-7.33
2022-12-19T00:29:17.098Z,-7.33
2022-12-19T00:31:45.630Z,-7.31
2022-12-19T00:34:12.137Z,-7.30
2022-12-19T00:36:38.561Z,-7.19
2022-12-19T00:39:08.201Z,-7.21
2022-12-19T00:41:57.543Z,-7.20
2022-12-19T00:44:26.029Z,-7.17
2022-12-19T00:46:52.920Z,-7.27
2022-12-19T00:49:19.541Z,-7.34
2022-12-19T00:51:45.875Z,-7.29
2022-12-19T00:54:20.537Z,-7.23
2022-12-19T00:56:47.265Z,-7.29
2022-12-19T00:59:23.956Z,-7.29
2022-12-19T01:01:53.051Z,-7.39
2022-12-19T01:04:28.256Z,-7.42
2022-12-19T01:06:58.000Z,-7.35
2022-12-19T01:09:30.228Z,-7.55
2022-12-19T01:12:25.255Z,-7.58
2022-12-19T01:18:13.188Z,-7.62
2022-12-19T01:20:40.174Z,-7.74
2022-12-19T01:23:18.796Z,-7.59
2022-12-19T01:25:49.052Z,-7.67
2022-12-19T01:28:16.019Z,-7.59
2022-12-19T01:30:42.970Z,-7.54
2022-12-19T01:33:12.827Z,-7.51
2022-12-19T01:35:39.702Z,-7.51
2022-12-19T01:38:08.402Z,-7.51
2022-12-19T01:40:35.010Z,-7.48
2022-12-19T01:43:02.041Z,-7.48
2022-12-19T01:45:34.906Z,-7.14
2022-12-19T01:48:28.355Z,-7.15
2022-12-19T01:51:01.726Z,-7.21
2022-12-19T01:53:31.627Z,-7.36
2022-12-19T01:56:09.915Z,-7.45
2022-12-19T01:58:38.138Z,-7.44
2022-12-19T02:01:04.716Z,-7.40
2022-12-19T02:03:32.693Z,-7.34
2022-12-19T02:05:59.947Z,-7.34
2022-12-19T02:08:27.567Z,-7.09
2022-12-19T02:10:56.013Z,-7.17
2022-12-19T02:13:23.165Z,-7.04
2022-12-19T02:16:00.217Z,-7.15
2022-12-19T02:18:47.097Z,-7.20
2022-12-19T02:21:19.417Z,-6.99
2022-12-19T02:23:46.209Z,-7.26
2022-12-19T02:26:25.579Z,-7.49
2022-12-19T02:28:54.724Z,-7.53
2022-12-19T02:31:25.872Z,-7.55
2022-12-19T02:33:56.673Z,-7.51
2022-12-19T02:36:25.871Z,-7.62
2022-12-19T02:42:44.483Z,-7.26
2022-12-19T02:45:12.987Z,-7.26
2022-12-19T02:48:19.062Z,-7.23
2022-12-19T02:50:48.492Z,-7.13
2022-12-19T02:53:33.652Z,-7.01
2022-12-19T02:56:10.443Z,-7.02
2022-12-19T02:59:05.357Z,-7.01
2022-12-19T03:01:40.144Z,-6.92
2022-12-19T03:04:20.632Z,-6.93
2022-12-19T03:06:54.608Z,-6.88
2022-12-19T03:09:21.071Z,-6.96
2022-12-19T03:11:52.705Z,-7.15
2022-12-19T03:14:20.781Z,-7.07
2022-12-19T03:17:08.844Z,-6.93
2022-12-19T03:19:36.203Z,-6.87
2022-12-19T03:22:02.645Z,-6.88
2022-12-19T03:24:38.360Z,-6.77
2022-12-19T03:27:27.853Z,-6.76
2022-12-19T03:30:21.126Z,-6.76
2022-12-19T03:32:48.112Z,-7.00
2022-12-19T03:35:34.971Z,-7.01
2022-12-19T03:38:03.008Z,-7.08
2022-12-19T03:40:48.448Z,-7.06
2022-12-19T03:43:16.465Z,-7.03
2022-12-19T03:45:42.831Z,-6.98
2022-12-19T03:48:13.578Z,-7.00
2022-12-19T03:50:47.306Z,-6.94
2022-12-19T03:53:33.292Z,-7.02
2022-12-19T03:56:06.545Z,-7.04
2022-12-19T03:58:40.153Z,-6.97
2022-12-19T04:01:06.964Z,-7.04
2022-12-19T04:03:33.468Z,-6.87
2022-12-19T04:06:00.644Z,-6.79
2022-12-19T04:08:33.970Z,-6.80
2022-12-19T04:11:03.464Z,-6.78
2022-12-19T04:13:41.290Z,-6.70
2022-12-19T04:16:19.982Z,-6.61
2022-12-19T04:19:10.253Z,-6.62
2022-12-19T04:21:42.825Z,-6.56
2022-12-19T04:24:15.659Z,-6.67
2022-12-19T04:26:44.344Z,-6.49
2022-12-19T04:29:12.190Z,-6.40
2022-12-19T04:31:39.949Z,-6.37
2022-12-19T04:34:06.291Z,-6.24
2022-12-19T04:36:33.693Z,-6.31
2022-12-19T04:42:28.471Z,-6.40
2022-12-19T04:44:54.883Z,-6.50
2022-12-19T04:47:27.485Z,-6.43
2022-12-19T04:49:53.810Z,-6.30
2022-12-19T04:52:20.137Z,-6.08
2022-12-19T04:54:46.482Z,-6.35
2022-12-19T04:57:12.895Z,-6.40
2022-12-19T04:59:45.124Z,-6.39
2022-12-19T05:02:11.535Z,-6.29
2022-12-19T05:04:53.326Z,-6.20
2022-12-19T05:07:19.665Z,-6.12
2022-12-19T05:09:46.003Z,-6.10
2022-12-19T05:12:12.331Z,-5.99
2022-12-19T05:14:38.739Z,-6.06
2022-12-19T05:17:34.225Z,-5.96
2022-12-19T05:20:00.568Z,-5.66
2022-12-19T05:22:50.863Z,-5.87
2022-12-19T05:25:17.241Z,-6.10
2022-12-19T05:27:51.345Z,-5.83
2022-12-19T05:30:17.779Z,-6.10
2022-12-19T05:32:53.392Z,-6.09
2022-12-19T05:35:19.747Z,-6.09
2022-12-19T05:37:46.155Z,-6.13
2022-12-19T05:40:12.497Z,-5.85
2022-12-19T05:42:38.871Z,-5.95
2022-12-19T05:45:26.981Z,-6.02
2022-12-19T05:47:55.723Z,-6.15
2022-12-19T05:50:25.214Z,-6.28
2022-12-19T05:52:51.840Z,-6.17
2022-12-19T05:55:18.412Z,-6.16
2022-12-19T05:57:44.812Z,-6.08
2022-12-19T06:00:11.476Z,-6.04
2022-12-19T06:02:38.194Z,-5.97
2022-12-19T06:05:04.811Z,-5.83
2022-12-19T06:07:31.157Z,-5.87
2022-12-19T06:09:57.534Z,-5.67
2022-12-19T06:12:23.927Z,-5.63
2022-12-19T06:14:50.354Z,-5.78
2022-12-19T06:17:26.926Z,-5.77
2022-12-19T06:19:53.255Z,-5.60
2022-12-19T06:22:20.668Z,-5.60
2022-12-19T06:24:47.014Z,-5.61
2022-12-19T06:27:13.328Z,-5.70
2022-12-19T06:29:39.719Z,-5.54
2022-12-19T06:32:08.688Z,-5.50
2022-12-19T06:35:02.734Z,-5.49
2022-12-19T06:41:07.730Z,-5.44
2022-12-19T06:46:55.768Z,-5.42
2022-12-19T06:49:29.344Z,-5.31
2022-12-19T06:51:55.696Z,-5.34
2022-12-19T06:54:28.442Z,-5.27
2022-12-19T06:56:54.780Z,-5.22
2022-12-19T06:59:21.110Z,-5.09
2022-12-19T07:01:52.689Z,-5.19
2022-12-19T07:04:22.364Z,-5.13
2022-12-19T07:06:49.354Z,-5.23
2022-12-19T07:09:27.293Z,-5.21
2022-12-19T07:11:53.648Z,-5.05
2022-12-19T07:14:27.078Z,-5.10
2022-12-19T07:16:54.384Z,-5.05
2022-12-19T07:19:27.790Z,-5.01
2022-12-19T07:21:55.089Z,-5.09
2022-12-19T07:24:21.703Z,-4.99
2022-12-19T07:26:48.637Z,-4.83
2022-12-19T07:29:15.028Z,-4.84
2022-12-19T07:31:41.437Z,-4.80
2022-12-19T07:34:07.787Z,-4.75
2022-12-19T07:36:39.636Z,-4.63
2022-12-19T07:39:05.977Z,-4.78
2022-12-19T07:41:55.097Z,-4.78
2022-12-19T07:44:21.468Z,-4.64
2022-12-19T07:46:48.266Z,-4.52
2022-12-19T07:49:19.583Z,-4.42
2022-12-19T07:51:53.848Z,-4.45
2022-12-19T07:54:20.203Z,-4.22
2022-12-19T07:56:46.548Z,-4.16
2022-12-19T07:59:13.188Z,-4.39
2022-12-19T08:01:39.876Z,-4.09
2022-12-19T08:04:06.469Z,-4.14
2022-12-19T08:06:40.731Z,-4.12
2022-12-19T08:09:08.109Z,-4.39
2022-12-19T08:11:49.049Z,-4.42
2022-12-19T08:14:15.376Z,-4.22
2022-12-19T08:17:11.383Z,-4.06
2022-12-19T08:19:28.032Z,-3.93
2022-12-19T08:21:54.542Z,-3.70
2022-12-19T08:24:20.933Z,-3.69
2022-12-19T08:26:47.892Z,-3.71
2022-12-19T08:29:47.465Z,-3.62
2022-12-19T08:32:20.512Z,-3.70
2022-12-19T08:38:47.102Z,-3.47
2022-12-19T08:41:14.143Z,-3.40
2022-12-19T08:43:40.791Z,-3.25
2022-12-19T08:46:09.260Z,-3.19
2022-12-19T08:49:14.743Z,-3.16
2022-12-19T08:51:41.381Z,-3.17
2022-12-19T08:54:07.956Z,-3.14
2022-12-19T08:57:06.437Z,-2.87
2022-12-19T08:59:33.116Z,-2.99
2022-12-19T09:02:00.984Z,-2.70
2022-12-19T09:06:04.392Z,-2.60
2022-12-19T09:07:42.836Z,-2.51
2022-12-19T09:10:09.354Z,-2.35
2022-12-19T09:13:01.751Z,-2.47
2022-12-19T09:15:28.091Z,-2.38
2022-12-19T09:18:17.373Z,-2.21
2022-12-19T09:20:45.652Z,-2.11
2022-12-19T09:26:33.979Z,-1.90
2022-12-19T09:29:00.899Z,-2.01
2022-12-19T09:34:56.832Z,-1.91
2022-12-19T09:37:23.161Z,-1.91
2022-12-19T09:40:20.592Z,-1.99
2022-12-19T09:42:58.586Z,-1.82
2022-12-19T09:45:41.014Z,-1.74
2022-12-19T09:51:31.970Z,-1.64
2022-12-19T09:54:13.500Z,-1.64
2022-12-19T09:56:46.181Z,-1.52
2022-12-19T09:59:26.118Z,-1.61
2022-12-19T10:02:06.665Z,-1.43
2022-12-19T10:04:35.829Z,-1.33
2022-12-19T10:07:31.431Z,-1.21
2022-12-19T10:12:35.055Z,-1.17
2022-12-19T10:13:12.854Z,-1.06
2022-12-19T10:16:00.341Z,-1.06
2022-12-19T10:18:51.165Z,-1.08
2022-12-19T10:31:53.681Z,-0.86
2022-12-19T10:34:24.931Z,-0.84
2022-12-19T10:37:27.246Z,-0.86
2022-12-19T10:40:17.375Z,-0.76
2022-12-19T10:43:05.008Z,-0.41
2022-12-19T10:45:40.158Z,-0.71
2022-12-19T10:48:11.365Z,-0.52
2022-12-19T10:50:38.338Z,-0.47
2022-12-19T10:56:31.805Z,-0.36
2022-12-19T10:59:03.421Z,-0.25
2022-12-19T11:01:35.003Z,-0.29
2022-12-19T11:04:20.420Z,-0.22
2022-12-19T11:06:48.622Z,-0.03
2022-12-19T11:09:18.205Z,0.10
2022-12-19T11:16:05.471Z,0.09
2022-12-19T11:18:20.966Z,0.17
2022-12-19T11:27:06.588Z,0.27
2022-12-19T11:29:40.888Z,0.30
2022-12-19T11:30:26.153Z,0.45
2022-12-19T11:31:55.698Z,0.47
2022-12-19T11:35:37.017Z,0.45
2022-12-19T11:41:33.949Z,0.59
2022-12-19T11:44:23.101Z,0.82
2022-12-19T11:46:56.966Z,0.57
2022-12-19T11:49:40.646Z,0.77
2022-12-19T11:55:23.823Z,0.61
2022-12-19T11:57:50.147Z,0.61
2022-12-19T12:00:18.232Z,0.54
2022-12-19T12:06:16.221Z,0.36
2022-12-19T12:16:00.717Z,0.20
2022-12-19T12:26:25.936Z,0.16
2022-12-19T12:31:10.596Z,0.41
2022-12-19T12:31:16.210Z,0.45
2022-12-19T12:31:29.755Z,0.32
2022-12-19T12:32:04.208Z,0.47
2022-12-19T12:35:08.089Z,0.51
2022-12-19T12:38:10.954Z,0.54
2022-12-19T12:42:41.429Z,0.71
2022-12-19T12:48:43.017Z,0.78
2022-12-19T12:51:09.861Z,0.40
2022-12-19T12:53:50.182Z,0.38
2022-12-19T12:56:17.646Z,0.05
2022-12-19T13:02:18.453Z,0.50
2022-12-19T13:12:19.632Z,0.61
2022-12-19T13:18:15.685Z,0.43
2022-12-19T13:20:46.850Z,0.47
2022-12-19T13:26:49.570Z,0.64
2022-12-19T13:29:25.995Z,0.45
2022-12-19T13:36:38.084Z,0.37
2022-12-19T13:40:00.232Z,0.48
2022-12-19T13:40:53.832Z,0.41
2022-12-19T13:43:43.463Z,0.45
2022-12-19T13:46:28.751Z,0.49
2022-12-19T13:52:23.185Z,0.38
2022-12-19T13:54:51.510Z,0.42
2022-12-19T14:00:51.921Z,0.39
2022-12-19T14:03:22.802Z,0.44
2022-12-19T14:06:16.939Z,0.55
2022-12-19T14:13:41.473Z,0.30
2022-12-19T14:15:13.146Z,0.24
2022-12-19T14:17:40.610Z,0.33
2022-12-19T14:22:02.649Z,0.12
2022-12-19T14:23:04.435Z,0.35
2022-12-19T14:28:18.615Z,0.33
2022-12-19T14:33:43.417Z,0.45
2022-12-19T14:39:25.870Z,0.49
2022-12-19T14:41:08.779Z,0.56
2022-12-19T14:43:58.763Z,0.51
2022-12-19T14:54:12.266Z,0.36
2022-12-19T15:02:32.442Z,-0.01
2022-12-19T15:05:07.828Z,0.09
2022-12-19T15:07:34.914Z,0.08
2022-12-19T15:10:59.049Z,0.10
2022-12-19T15:14:54.921Z,0.13
2022-12-19T15:19:37.735Z,0.14
2022-12-19T15:22:04.087Z,0.08
2022-12-19T15:24:30.473Z,-0.01
2022-12-19T15:26:56.813Z,-0.01
2022-12-19T15:29:23.273Z,-0.10
2022-12-19T15:31:50.058Z,0.06
2022-12-19T15:34:51.498Z,0.03
2022-12-19T15:37:52.017Z,-0.03
2022-12-19T15:40:18.600Z,0.13
2022-12-19T15:42:47.676Z,0.12
2022-12-19T15:45:19.185Z,0.18
2022-12-19T15:47:47.688Z,0.19
2022-12-19T15:53:42.729Z,0.28
2022-12-19T15:56:28.257Z,0.30
2022-12-19T16:02:24.887Z,0.33
2022-12-19T16:11:47.877Z,0.20
2022-12-19T16:21:40.540Z,0.06
2022-12-19T16:24:07.070Z,-0.05
2022-12-19T16:26:44.630Z,-0.03
2022-12-19T16:29:26.521Z,0.03
2022-12-19T16:36:01.843Z,0.11
2022-12-19T16:41:41.948Z,-0.09
2022-12-19T16:44:23.178Z,-0.01
2022-12-19T16:46:51.257Z,0.01
2022-12-19T16:49:22.971Z,-0.06
2022-12-19T16:52:05.046Z,0.04
2022-12-19T16:54:49.244Z,-0.10
2022-12-19T16:57:18.714Z,-0.18
2022-12-19T17:00:11.082Z,-0.05
2022-12-19T17:03:01.461Z,-0.31
2022-12-19T17:06:10.296Z,-0.37
2022-12-19T17:08:48.891Z,-0.15
2022-12-19T17:11:15.594Z,0.04
2022-12-19T17:13:42.627Z,-0.01
2022-12-19T17:16:09.012Z,0.21
2022-12-19T17:18:37.204Z,0.03
2022-12-19T17:21:03.597Z,0.02
2022-12-19T17:23:31.039Z,-0.14
2022-12-19T17:25:59.356Z,0.20
2022-12-19T17:28:32.222Z,-0.13
2022-12-19T17:31:02.571Z,-0.03
2022-12-19T17:33:33.199Z,-0.01
2022-12-19T17:36:03.727Z,-0.03
2022-12-19T17:38:30.078Z,-0.19
2022-12-19T17:40:56.607Z,-0.32
2022-12-19T17:43:22.966Z,-0.28
2022-12-19T17:45:50.360Z,-0.28
2022-12-19T17:48:26.369Z,-0.36
2022-12-19T17:50:53.359Z,-0.10
2022-12-19T17:53:19.725Z,-0.30
2022-12-19T17:55:46.115Z,-0.29
2022-12-19T17:58:12.523Z,-0.19
2022-12-19T18:00:39.587Z,-0.17
2022-12-19T18:03:17.558Z,-0.18
2022-12-19T18:05:44.154Z,-0.07
2022-12-19T18:08:21.312Z,0.05
2022-12-19T18:10:47.730Z,-0.04
2022-12-19T18:16:35.488Z,-0.06
2022-12-19T18:22:23.888Z,0.10
2022-12-19T18:24:50.217Z,0.07
2022-12-19T18:27:16.717Z,0.06
2022-12-19T18:29:43.048Z,0.08
2022-12-19T18:32:18.793Z,0.10
2022-12-19T18:35:19.181Z,0.09
2022-12-19T18:37:53.674Z,0.07
2022-12-19T18:40:57.005Z,0.07
2022-12-19T18:46:45.362Z,0.05
2022-12-19T18:52:33.425Z,-0.03
2022-12-19T18:55:26.916Z,-0.04
2022-12-19T18:58:11.395Z,-0.10
2022-12-19T19:04:12.111Z,-0.06
2022-12-19T19:06:48.563Z,-0.04
2022-12-19T19:09:27.846Z,-0.08
2022-12-19T19:12:15.959Z,-0.04
2022-12-19T19:14:56.369Z,0.03
2022-12-19T19:17:28.050Z,0.05
2022-12-19T19:19:55.049Z,0.06
2022-12-19T19:25:49.448Z,-0.14
2022-12-19T19:28:23.720Z,-0.28
2022-12-19T19:31:23.514Z,-0.34
2022-12-19T19:34:10.307Z,-0.32
2022-12-19T19:43:55.064Z,-0.49
2022-12-19T19:46:40.561Z,-0.37
2022-12-19T19:49:06.982Z,-0.39
2022-12-19T19:51:33.435Z,-0.38
2022-12-19T19:53:59.761Z,-0.38
2022-12-19T19:56:26.102Z,-0.44
2022-12-19T19:58:57.595Z,-0.52
2022-12-19T20:01:24.040Z,-0.44
2022-12-19T20:03:50.666Z,-0.81
2022-12-19T20:06:17.798Z,-0.80
2022-12-19T20:08:44.773Z,-0.82
2022-12-19T20:11:11.278Z,-0.83
2022-12-19T20:14:20.230Z,-0.82
2022-12-19T20:17:25.509Z,-0.90
2022-12-19T20:26:54.772Z,-0.99
2022-12-19T20:29:21.402Z,-1.01
2022-12-19T20:32:25.790Z,-1.06
2022-12-19T20:34:52.135Z,-1.02
2022-12-19T20:40:45.892Z,-0.90
2022-12-19T20:43:12.228Z,-0.91
2022-12-19T20:45:38.932Z,-0.93
2022-12-19T20:48:05.391Z,-0.91
2022-12-19T20:50:52.213Z,-0.91
2022-12-19T20:56:48.135Z,-0.97
2022-12-19T20:59:26.850Z,-1.01
2022-12-19T21:02:00.529Z,-0.99
2022-12-19T21:04:27.611Z,-0.85
2022-12-19T21:06:54.216Z,-0.83
2022-12-19T21:09:27.721Z,-0.83
2022-12-19T21:11:54.139Z,-0.85
2022-12-19T21:14:27.957Z,-0.60
2022-12-19T21:17:07.636Z,-0.81
2022-12-19T21:19:39.026Z,-0.85
2022-12-19T21:22:05.396Z,-0.80
2022-12-19T21:24:53.729Z,-0.76
2022-12-19T21:27:20.052Z,-0.68
2022-12-19T21:29:57.715Z,-0.83
2022-12-19T21:35:52.487Z,-0.84
2022-12-19T21:38:34.236Z,-0.70
2022-12-19T21:41:08.968Z,-0.74
2022-12-19T21:43:36.663Z,-0.80
2022-12-19T21:46:16.924Z,-0.75
2022-12-19T21:48:45.014Z,-0.78
2022-12-19T21:51:11.668Z,-0.97
2022-12-19T21:54:05.028Z,-0.87
2022-12-19T21:56:34.470Z,-0.95
2022-12-19T21:59:40.070Z,-0.82
2022-12-19T22:02:09.344Z,-0.99
2022-12-19T22:04:56.040Z,-0.90
2022-12-19T22:07:22.432Z,-0.87
2022-12-19T22:09:48.777Z,-0.87
2022-12-19T22:12:15.282Z,-0.74
2022-12-19T22:14:41.620Z,-0.82
2022-12-19T22:17:07.962Z,-0.74
2022-12-19T22:19:34.348Z,-0.78
2022-12-19T22:22:00.711Z,-0.81
2022-12-19T22:24:27.579Z,-0.82
2022-12-19T22:26:54.055Z,-0.84
2022-12-19T22:29:20.411Z,-0.80
2022-12-19T22:31:53.879Z,-0.81
2022-12-19T22:34:21.001Z,-0.85
2022-12-19T22:36:48.710Z,-0.77
2022-12-19T22:39:16.347Z,-0.81
2022-12-19T22:41:53.577Z,-0.62
2022-12-19T22:44:23.937Z,-0.87
2022-12-19T22:46:50.557Z,-0.58
2022-12-19T22:49:23.110Z,-0.86
2022-12-19T22:51:49.977Z,-0.82
2022-12-19T22:54:43.116Z,-0.78
2022-12-19T22:57:09.481Z,-0.66
2022-12-19T22:59:35.808Z,-0.81
2022-12-19T23:02:02.312Z,-0.96
2022-12-19T23:04:28.843Z,-0.84
2022-12-19T23:06:55.199Z,-0.98
2022-12-19T23:09:21.637Z,-0.84
2022-12-19T23:11:50.048Z,-0.81
2022-12-19T23:14:17.526Z,-0.81
2022-12-19T23:16:44.377Z,-0.76
2022-12-19T23:19:10.986Z,-0.64
2022-12-19T23:21:37.544Z,-0.61
2022-12-19T23:24:22.404Z,-0.55
2022-12-19T23:26:48.736Z,-0.51
2022-12-19T23:29:15.650Z,-0.59
2022-12-19T23:31:43.822Z,-0.63
2022-12-19T23:37:38.312Z,-0.69
2022-12-19T23:40:04.922Z,-0.72
2022-12-19T23:42:31.299Z,-0.75
2022-12-19T23:44:57.804Z,-0.75
2022-12-19T23:47:24.132Z,-0.76
2022-12-19T23:49:50.561Z,-0.83
2022-12-19T23:52:16.963Z,-0.78
2022-12-19T23:54:43.320Z,-0.86
2022-12-19T23:57:09.664Z,-0.90
2022-12-19T23:59:36.043Z,-0.88
